Time;durP1;ratioP1;P1;durP2;ratioP2;P2;SDS_P1;SDS_P2;PMS_P1;PMS_P2;Temp;Humidity;BMP_temperature;BMP_pressure;BME280_temperature;BME280_humidity;BME280_pressure;Samples;Min_cycle;Max_cycle;Signal;HPM_P1;HPM_P2
2021/08/11 00:00:12;;;;;;;15.98;8.57;;;12.50;99.90;;;;;;5091617;28;20031;-80
2021/08/11 00:02:38;;;;;;;10.93;7.28;;;12.60;99.90;;;;;;5093021;28;20069;-81
2021/08/11 00:05:04;;;;;;;11.18;8.27;;;12.60;99.90;;;;;;5090674;28;20076;-81
2021/08/11 00:07:29;;;;;;;12.05;9.40;;;12.60;99.90;;;;;;5092829;28;20020;-81
2021/08/11 00:09:55;;;;;;;16.83;9.73;;;12.70;99.90;;;;;;5091661;28;20024;-81
2021/08/11 00:12:21;;;;;;;12.88;9.40;;;12.70;99.90;;;;;;5092911;28;20210;-81
2021/08/11 00:14:46;;;;;;;11.80;8.90;;;12.80;99.90;;;;;;5091858;28;20069;-81
2021/08/11 00:17:12;;;;;;;15.65;11.85;;;12.90;99.90;;;;;;5092625;28;20026;-81
2021/08/11 00:19:38;;;;;;;14.15;10.98;;;12.90;99.90;;;;;;5092308;28;20106;-81
2021/08/11 00:22:04;;;;;;;12.15;9.27;;;13.00;99.90;;;;;;5091315;28;20526;-81
2021/08/11 00:24:29;;;;;;;18.30;10.52;;;13.00;99.90;;;;;;5092303;28;20095;-81
2021/08/11 00:26:55;;;;;;;13.30;9.85;;;13.10;99.90;;;;;;5092245;28;20031;-81
2021/08/11 00:29:21;;;;;;;15.68;10.32;;;13.10;99.90;;;;;;5091220;28;20035;-81
2021/08/11 00:31:46;;;;;;;11.60;9.82;;;13.20;99.90;;;;;;5092478;28;20020;-81
2021/08/11 00:34:12;;;;;;;14.50;9.77;;;13.30;99.90;;;;;;5090925;28;20028;-81
2021/08/11 00:36:38;;;;;;;14.77;9.48;;;13.30;99.90;;;;;;5090676;28;20032;-82
2021/08/11 00:39:03;;;;;;;17.52;9.73;;;13.40;99.90;;;;;;5090991;28;20556;-81
2021/08/11 00:41:29;;;;;;;15.38;10.57;;;13.50;99.90;;;;;;5091000;28;20047;-82
2021/08/11 00:43:54;;;;;;;16.10;9.68;;;13.50;99.90;;;;;;5091993;28;20028;-81
2021/08/11 00:46:20;;;;;;;23.58;12.50;;;13.50;99.90;;;;;;5091851;28;20474;-82
2021/08/11 00:48:46;;;;;;;17.08;12.20;;;13.70;99.90;;;;;;5092248;28;20062;-82
2021/08/11 00:51:13;;;;;;;17.20;11.30;;;13.60;99.90;;;;;;5092069;28;20024;-82
2021/08/11 00:53:40;;;;;;;14.98;11.10;;;13.80;99.90;;;;;;5090750;28;20081;-81
2021/08/11 00:56:07;;;;;;;23.50;12.35;;;13.90;99.90;;;;;;5090446;28;20487;-82
2021/08/11 00:58:34;;;;;;;22.25;12.10;;;13.90;99.90;;;;;;5091858;28;20476;-82
2021/08/11 01:01:02;;;;;;;16.33;11.40;;;14.00;99.90;;;;;;5092076;28;20016;-82
2021/08/11 01:03:29;;;;;;;16.05;11.15;;;14.00;99.90;;;;;;5091825;28;20020;-81
2021/08/11 01:05:59;;;;;;;20.08;11.00;;;14.10;99.90;;;;;;5090459;28;20498;-82
2021/08/11 01:08:28;;;;;;;20.08;12.60;;;14.10;99.90;;;;;;5090476;28;20031;-82
2021/08/11 01:10:54;;;;;;;18.35;11.90;;;14.30;99.90;;;;;;5091430;28;20024;-82
2021/08/11 01:13:21;;;;;;;23.65;12.60;;;14.30;99.90;;;;;;5091567;28;20039;-81
2021/08/11 01:15:46;;;;;;;21.83;12.75;;;14.30;99.90;;;;;;5091568;28;20099;-82
2021/08/11 01:18:17;;;;;;;15.13;10.52;;;14.30;99.90;;;;;;5090213;28;20189;-82
2021/08/11 01:20:59;;;;;;;14.25;9.20;;;14.30;99.90;;;;;;5090608;28;20028;-82
2021/08/11 01:23:29;;;;;;;18.13;9.77;;;14.40;99.90;;;;;;5090453;28;20557;-82
2021/08/11 01:26:08;;;;;;;13.52;10.43;;;14.20;99.90;;;;;;5090272;28;20119;-82
2021/08/11 01:28:36;;;;;;;23.90;13.15;;;14.20;99.90;;;;;;5095619;28;20082;-82
2021/08/11 01:31:07;;;;;;;35.80;15.07;;;14.30;99.90;;;;;;5094554;28;20031;-82
2021/08/11 01:33:51;;;;;;;23.42;13.35;;;14.20;99.90;;;;;;5095787;28;20024;-82
2021/08/11 01:36:17;;;;;;;23.38;16.15;;;14.20;99.90;;;;;;5094586;28;20032;-82
2021/08/11 01:38:50;;;;;;;24.65;14.75;;;14.10;99.90;;;;;;5094087;28;20059;-82
2021/08/11 01:41:17;;;;;;;31.35;16.88;;;14.10;99.90;;;;;;5094388;28;20020;-82
2021/08/11 01:43:45;;;;;;;35.72;19.33;;;14.00;99.90;;;;;;5094110;28;20031;-81
2021/08/11 01:46:14;;;;;;;25.88;16.50;;;13.90;99.90;;;;;;5094150;28;20023;-82
2021/08/11 01:48:42;;;;;;;37.22;20.80;;;13.90;99.90;;;;;;5095262;28;20028;-82
2021/08/11 01:51:08;;;;;;;33.15;16.83;;;13.80;99.90;;;;;;5095573;28;20544;-82
2021/08/11 01:53:34;;;;;;;40.72;20.75;;;13.80;99.90;;;;;;5094275;28;20399;-82
2021/08/11 01:56:01;;;;;;;32.58;16.13;;;13.70;99.90;;;;;;5093945;28;20060;-82
2021/08/11 01:58:31;;;;;;;41.40;21.40;;;13.70;99.90;;;;;;5093667;28;20028;-82
2021/08/11 02:01:00;;;;;;;20.95;14.80;;;13.60;99.90;;;;;;5095223;28;20103;-82
2021/08/11 02:03:27;;;;;;;30.83;18.88;;;13.60;99.90;;;;;;5093920;28;20073;-82
2021/08/11 02:05:54;;;;;;;23.50;16.40;;;13.50;99.90;;;;;;5093685;28;20020;-82
2021/08/11 02:08:21;;;;;;;18.45;13.27;;;13.40;99.90;;;;;;5094891;28;20028;-82
2021/08/11 02:10:48;;;;;;;18.90;13.93;;;13.30;99.90;;;;;;5074354;28;20025;-82
2021/08/11 02:13:17;;;;;;;16.63;12.00;;;13.30;99.90;;;;;;5073577;28;20028;-82
2021/08/11 02:15:46;;;;;;;18.17;11.68;;;13.20;99.90;;;;;;5074364;28;20488;-82
2021/08/11 02:18:12;;;;;;;23.20;13.82;;;13.10;99.90;;;;;;5073384;28;20032;-82
2021/08/11 02:20:37;;;;;;;30.77;18.02;;;13.10;99.90;;;;;;5091468;28;20035;-82
2021/08/11 02:23:03;;;;;;;22.00;16.33;;;13.10;99.90;;;;;;5093694;28;20024;-82
2021/08/11 02:25:29;;;;;;;25.60;13.25;;;13.20;99.90;;;;;;5094520;28;20357;-82
2021/08/11 02:28:07;;;;;;;13.27;10.82;;;13.20;99.90;;;;;;5094752;28;20372;-82
2021/08/11 02:31:06;;;;;;;18.58;13.48;;;13.20;99.90;;;;;;5093872;28;20020;-82
2021/08/11 02:33:44;;;;;;;17.65;9.68;;;13.20;99.90;;;;;;5093461;28;20028;-82
2021/08/11 02:36:21;;;;;;;13.13;9.38;;;13.20;99.90;;;;;;5093248;28;20032;-82
2021/08/11 02:38:47;;;;;;;12.45;8.90;;;13.10;99.90;;;;;;5093074;28;20173;-82
2021/08/11 02:41:44;;;;;;;14.50;10.00;;;13.20;99.90;;;;;;5092890;28;20021;-82
2021/08/11 02:44:26;;;;;;;15.68;12.02;;;13.20;99.90;;;;;;5092501;28;20171;-82
2021/08/11 02:46:52;;;;;;;26.42;16.17;;;13.20;99.90;;;;;;5094401;28;20028;-82
2021/08/11 02:49:27;;;;;;;20.95;12.95;;;13.30;99.90;;;;;;5093151;28;20047;-82
2021/08/11 02:51:54;;;;;;;13.45;11.30;;;13.30;99.90;;;;;;5092786;28;20482;-82
2021/08/11 02:54:22;;;;;;;20.35;14.05;;;13.30;99.90;;;;;;5092773;28;20373;-82
2021/08/11 02:56:48;;;;;;;20.63;13.40;;;13.40;99.90;;;;;;5094274;28;20433;-82
2021/08/11 02:59:15;;;;;;;25.08;16.50;;;13.40;99.90;;;;;;5094079;28;20034;-82
2021/08/11 03:01:42;;;;;;;22.20;14.55;;;13.40;99.90;;;;;;5092645;28;20020;-82
2021/08/11 03:04:07;;;;;;;20.58;13.82;;;13.40;99.90;;;;;;5093836;28;20024;-82
2021/08/11 03:06:34;;;;;;;17.92;12.65;;;13.40;99.90;;;;;;5092834;28;20536;-82
2021/08/11 03:09:00;;;;;;;23.45;14.25;;;13.40;99.90;;;;;;5094009;28;20024;-82
2021/08/11 03:11:28;;;;;;;20.63;12.18;;;13.60;99.90;;;;;;5093243;28;20653;-82
2021/08/11 03:13:55;;;;;;;19.48;13.15;;;13.40;99.90;;;;;;5092579;28;20500;-82
2021/08/11 03:16:20;;;;;;;32.63;19.80;;;13.30;99.90;;;;;;5092536;28;20476;-82
2021/08/11 03:18:49;;;;;;;37.80;19.83;;;13.30;99.90;;;;;;5092433;28;20053;-82
2021/08/11 03:21:14;;;;;;;42.17;26.67;;;13.40;99.90;;;;;;5092271;28;20433;-82
2021/08/11 03:23:40;;;;;;;49.17;26.55;;;13.40;99.90;;;;;;5092121;28;20111;-82
2021/08/11 03:26:05;;;;;;;29.00;17.02;;;13.30;99.90;;;;;;5093161;28;20046;-82
2021/08/11 03:28:31;;;;;;;19.35;13.48;;;13.30;99.90;;;;;;5092377;28;20523;-82
2021/08/11 03:30:57;;;;;;;20.92;14.73;;;13.20;99.90;;;;;;5092156;28;20028;-82
2021/08/11 03:33:22;;;;;;;20.58;13.35;;;13.10;99.90;;;;;;5093282;28;20059;-82
2021/08/11 03:35:48;;;;;;;20.23;15.48;;;13.00;99.90;;;;;;5093264;28;20032;-82
2021/08/11 03:38:13;;;;;;;25.88;14.40;;;13.10;99.90;;;;;;5091990;28;20032;-82
2021/08/11 03:40:39;;;;;;;19.30;12.93;;;12.90;99.90;;;;;;5092114;28;20114;-82
2021/08/11 03:43:04;;;;;;;20.00;13.07;;;12.90;99.90;;;;;;5093335;28;20369;-81
2021/08/11 03:45:30;;;;;;;22.70;12.38;;;12.90;99.90;;;;;;5091769;28;20463;-82
2021/08/11 03:47:55;;;;;;;15.52;12.23;;;12.90;99.90;;;;;;5092082;28;20043;-82
2021/08/11 03:50:24;;;;;;;18.63;13.07;;;12.90;99.90;;;;;;5091449;28;20104;-82
2021/08/11 03:52:50;;;;;;;22.00;13.98;;;12.90;99.90;;;;;;5091513;28;20024;-82
2021/08/11 03:55:16;;;;;;;19.27;13.63;;;12.90;99.90;;;;;;5092884;28;20034;-82
2021/08/11 03:57:42;;;;;;;15.65;12.07;;;12.90;99.90;;;;;;5091846;28;20055;-82
2021/08/11 04:00:09;;;;;;;16.13;12.25;;;12.80;99.90;;;;;;5091778;28;20063;-82
2021/08/11 04:02:35;;;;;;;17.67;11.07;;;12.70;99.90;;;;;;5092663;28;20111;-82
2021/08/11 04:05:07;;;;;;;17.23;11.15;;;12.60;99.90;;;;;;5091398;28;20054;-82
2021/08/11 04:07:35;;;;;;;22.42;11.65;;;12.50;99.90;;;;;;5091544;28;20020;-82
2021/08/11 04:10:00;;;;;;;14.05;11.48;;;12.50;99.90;;;;;;5092906;28;20031;-82
2021/08/11 04:12:26;;;;;;;15.82;11.68;;;12.50;99.90;;;;;;5092532;28;20400;-82
2021/08/11 04:14:52;;;;;;;27.33;12.50;;;12.40;99.90;;;;;;5091319;28;20043;-82
2021/08/11 04:17:17;;;;;;;18.77;12.38;;;12.40;99.90;;;;;;5091474;28;20484;-82
2021/08/11 04:19:43;;;;;;;21.27;12.57;;;12.30;99.90;;;;;;5091348;28;20024;-82
2021/08/11 04:22:08;;;;;;;15.90;12.70;;;12.30;99.90;;;;;;5091261;28;20414;-82
2021/08/11 04:24:34;;;;;;;21.27;11.95;;;12.30;99.90;;;;;;5090139;28;20039;-82
2021/08/11 04:26:59;;;;;;;16.05;10.82;;;12.30;99.90;;;;;;5091338;28;20045;-82
2021/08/11 04:29:25;;;;;;;18.08;11.57;;;12.30;99.90;;;;;;5091198;28;20028;-82
2021/08/11 04:31:51;;;;;;;18.20;12.23;;;12.30;99.90;;;;;;5091220;28;20024;-82
2021/08/11 04:34:16;;;;;;;21.98;14.02;;;12.30;99.90;;;;;;5091803;28;20040;-82
2021/08/11 04:36:42;;;;;;;19.95;12.43;;;12.30;99.90;;;;;;5090910;28;20043;-82
2021/08/11 04:39:07;;;;;;;21.33;12.88;;;12.30;99.90;;;;;;5092218;28;20020;-82
2021/08/11 04:41:33;;;;;;;27.65;14.43;;;12.30;99.90;;;;;;5092345;28;20476;-82
2021/08/11 04:43:58;;;;;;;33.25;16.70;;;12.40;99.90;;;;;;5091676;28;20480;-82
2021/08/11 04:46:24;;;;;;;25.48;14.38;;;12.50;99.90;;;;;;5090990;28;20027;-82
2021/08/11 04:48:50;;;;;;;18.45;11.95;;;12.50;99.90;;;;;;5090971;28;20507;-82
2021/08/11 04:51:15;;;;;;;28.63;13.65;;;12.50;99.90;;;;;;5092078;28;20476;-82
2021/08/11 04:53:41;;;;;;;29.40;14.77;;;12.50;99.90;;;;;;5090792;28;20039;-82
2021/08/11 04:56:06;;;;;;;21.50;12.55;;;12.60;99.90;;;;;;5090378;28;20121;-82
2021/08/11 04:58:32;;;;;;;15.15;11.07;;;12.50;99.90;;;;;;5090654;28;20031;-82
2021/08/11 05:00:57;;;;;;;15.75;10.50;;;12.60;99.90;;;;;;5090768;28;20016;-83
2021/08/11 05:03:23;;;;;;;18.67;10.27;;;12.60;99.90;;;;;;5090808;28;20043;-82
2021/08/11 05:05:48;;;;;;;16.35;11.25;;;12.80;99.90;;;;;;5089736;28;20047;-82
2021/08/11 05:08:14;;;;;;;23.75;14.65;;;12.70;99.90;;;;;;5091995;28;20074;-82
2021/08/11 05:10:39;;;;;;;23.83;13.52;;;12.80;99.90;;;;;;5090647;28;20073;-82
2021/08/11 05:13:06;;;;;;;30.85;18.42;;;12.90;99.90;;;;;;5090740;28;20024;-82
2021/08/11 05:15:32;;;;;;;34.15;19.75;;;13.00;99.90;;;;;;5091390;28;20028;-82
2021/08/11 05:17:57;;;;;;;27.55;16.27;;;13.20;99.90;;;;;;5090663;28;20021;-82
2021/08/11 05:20:23;;;;;;;20.90;14.15;;;13.30;99.90;;;;;;5090420;28;20039;-82
2021/08/11 05:22:49;;;;;;;26.27;16.20;;;13.40;99.90;;;;;;5091797;28;20024;-82
2021/08/11 05:25:14;;;;;;;20.80;15.18;;;13.40;99.90;;;;;;5089938;28;20111;-82
2021/08/11 05:27:41;;;;;;;21.05;14.82;;;13.60;99.90;;;;;;5090496;28;20042;-82
2021/08/11 05:30:08;;;;;;;20.55;13.77;;;13.60;99.90;;;;;;5091783;28;20031;-82
2021/08/11 05:32:34;;;;;;;17.13;12.80;;;13.80;99.90;;;;;;5090495;28;20031;-82
2021/08/11 05:35:00;;;;;;;21.00;12.85;;;13.90;99.90;;;;;;5091364;28;20036;-82
2021/08/11 05:37:26;;;;;;;22.70;13.15;;;14.00;99.90;;;;;;5091080;28;20028;-82
2021/08/11 05:39:52;;;;;;;21.42;14.32;;;14.00;99.90;;;;;;5090276;28;20024;-82
2021/08/11 05:42:17;;;;;;;26.08;16.42;;;14.20;99.90;;;;;;5078224;28;20437;-82
2021/08/11 05:44:43;;;;;;;34.33;19.50;;;14.30;99.90;;;;;;5085014;28;20026;-82
2021/08/11 05:47:11;;;;;;;31.42;20.13;;;14.40;99.90;;;;;;5089413;28;20039;-82
2021/08/11 05:49:37;;;;;;;29.77;18.83;;;14.60;99.90;;;;;;5089738;28;20032;-83
2021/08/11 05:52:04;;;;;;;35.90;21.17;;;14.60;99.90;;;;;;5090334;28;20027;-83
2021/08/11 05:54:30;;;;;;;38.35;21.23;;;14.80;99.90;;;;;;5090035;28;20115;-82
2021/08/11 05:56:56;;;;;;;28.90;18.60;;;14.90;99.90;;;;;;5091252;28;20082;-82
2021/08/11 05:59:21;;;;;;;30.55;19.17;;;15.00;99.90;;;;;;5091414;28;20097;-82
2021/08/11 06:01:47;;;;;;;36.80;20.52;;;15.20;99.90;;;;;;5088898;28;20111;-82
2021/08/11 06:04:12;;;;;;;40.92;20.80;;;15.30;99.90;;;;;;5089402;28;20078;-82
2021/08/11 06:06:38;;;;;;;26.85;16.17;;;15.30;99.90;;;;;;5089668;28;20024;-82
2021/08/11 06:09:03;;;;;;;41.20;21.38;;;15.60;99.90;;;;;;5090082;28;20391;-81
2021/08/11 06:11:29;;;;;;;36.58;20.02;;;15.70;99.90;;;;;;5089959;28;20020;-81
2021/08/11 06:13:54;;;;;;;32.45;18.05;;;15.60;99.90;;;;;;5093732;28;20020;-82
2021/08/11 06:16:20;;;;;;;26.67;16.08;;;15.70;99.90;;;;;;5094644;28;20032;-82
2021/08/11 06:18:46;;;;;;;33.13;15.52;;;15.70;99.90;;;;;;5094867;28;20029;-82
2021/08/11 06:21:12;;;;;;;25.90;14.77;;;15.70;99.90;;;;;;5086732;28;20012;-80
2021/08/11 06:23:37;;;;;;;27.83;14.90;;;16.00;99.90;;;;;;5089474;28;20016;-80
2021/08/11 06:26:03;;;;;;;23.52;13.07;;;16.10;99.90;;;;;;5089299;28;20031;-80
2021/08/11 06:28:28;;;;;;;29.40;14.93;;;16.10;99.90;;;;;;5088708;28;20541;-80
2021/08/11 06:30:54;;;;;;;47.25;15.55;;;16.30;99.90;;;;;;5088964;28;20053;-81
2021/08/11 06:33:21;;;;;;;25.40;13.50;;;16.50;99.90;;;;;;5091759;28;20472;-80
2021/08/11 06:35:46;;;;;;;22.20;13.45;;;16.60;99.90;;;;;;5093018;28;20063;-80
2021/08/11 06:38:12;;;;;;;20.90;11.95;;;16.50;99.90;;;;;;5092979;28;20488;-80
2021/08/11 06:40:39;;;;;;;32.08;11.85;;;16.70;99.90;;;;;;5094655;28;20024;-79
2021/08/11 06:43:05;;;;;;;19.13;10.00;;;16.80;99.90;;;;;;5094585;28;20020;-80
2021/08/11 06:45:31;;;;;;;22.52;10.68;;;16.80;99.90;;;;;;5094303;28;20020;-80
2021/08/11 06:47:56;;;;;;;16.80;8.23;;;16.80;99.90;;;;;;5092771;28;20027;-80
2021/08/11 06:50:22;;;;;;;12.32;8.05;;;16.80;99.90;;;;;;5094378;28;20016;-81
2021/08/11 06:52:47;;;;;;;16.58;8.48;;;17.00;99.90;;;;;;5094309;28;20028;-80
2021/08/11 06:55:17;;;;;;;20.20;7.88;;;17.10;99.90;;;;;;5092921;28;20034;-80
2021/08/11 06:57:46;;;;;;;14.90;7.93;;;17.20;99.90;;;;;;5093969;28;20055;-80
2021/08/11 07:00:12;;;;;;;13.38;7.05;;;17.30;99.90;;;;;;5094176;28;20051;-80
2021/08/11 07:02:38;;;;;;;13.65;7.13;;;17.40;99.90;;;;;;5094162;28;20016;-80
2021/08/11 07:05:04;;;;;;;17.00;8.43;;;17.40;99.90;;;;;;5093850;28;20498;-80
2021/08/11 07:07:30;;;;;;;23.15;7.85;;;17.40;99.90;;;;;;5094147;28;20020;-80
2021/08/11 07:09:57;;;;;;;12.65;6.78;;;17.50;99.90;;;;;;5093459;28;20038;-80
2021/08/11 07:12:22;;;;;;;14.85;6.82;;;17.80;99.90;;;;;;5093990;28;20036;-80
2021/08/11 07:14:48;;;;;;;15.13;6.50;;;18.00;99.90;;;;;;5092389;28;20020;-80
2021/08/11 07:17:14;;;;;;;12.82;6.55;;;18.30;99.90;;;;;;5092574;28;20573;-81
2021/08/11 07:19:40;;;;;;;12.77;6.72;;;18.40;99.90;;;;;;5093453;28;20050;-81
2021/08/11 07:22:06;;;;;;;12.48;6.18;;;18.70;99.90;;;;;;5092525;28;20551;-81
2021/08/11 07:24:32;;;;;;;15.93;6.50;;;18.90;99.90;;;;;;5091084;28;20020;-82
2021/08/11 07:26:58;;;;;;;12.75;5.90;;;19.00;99.90;;;;;;5093718;28;20035;-82
2021/08/11 07:29:23;;;;;;;12.82;6.38;;;19.20;99.90;;;;;;5092024;28;20031;-82
2021/08/11 07:31:49;;;;;;;11.57;5.10;;;19.30;99.90;;;;;;5092370;28;20032;-81
2021/08/11 07:34:15;;;;;;;11.50;5.35;;;19.00;99.90;;;;;;5093230;28;20477;-83
2021/08/11 07:36:41;;;;;;;7.97;5.05;;;19.10;99.90;;;;;;5093455;28;20032;-83
2021/08/11 07:39:06;;;;;;;11.00;5.43;;;19.00;99.90;;;;;;5093073;28;20484;-84
2021/08/11 07:41:32;;;;;;;10.25;5.45;;;19.20;99.90;;;;;;5092008;28;20058;-84
2021/08/11 07:43:59;;;;;;;13.60;4.85;;;19.60;99.90;;;;;;5091874;28;20054;-84
2021/08/11 07:46:25;;;;;;;7.30;4.55;;;19.60;99.90;;;;;;5091969;28;20102;-83
2021/08/11 07:48:50;;;;;;;8.07;4.82;;;19.40;99.90;;;;;;5091997;28;20444;-85
2021/08/11 07:51:16;;;;;;;11.43;5.72;;;19.00;99.90;;;;;;5091662;28;20024;-85
2021/08/11 07:53:42;;;;;;;11.30;6.35;;;18.70;99.90;;;;;;5091980;28;20028;-86
2021/08/11 07:56:07;;;;;;;15.32;6.38;;;18.40;99.90;;;;;;5091864;28;20027;-84
2021/08/11 07:58:33;;;;;;;14.80;6.70;;;18.20;99.90;;;;;;5091694;28;20038;-84
2021/08/11 08:00:59;;;;;;;15.27;5.82;;;18.20;99.90;;;;;;5092783;28;20559;-84
2021/08/11 08:03:25;;;;;;;12.88;6.53;;;18.30;99.90;;;;;;5091397;28;20107;-82
2021/08/11 08:05:50;;;;;;;15.35;6.32;;;18.20;99.90;;;;;;5091402;28;20024;-84
2021/08/11 08:08:17;;;;;;;11.20;5.90;;;18.40;99.90;;;;;;5091702;28;20024;-85
2021/08/11 08:10:43;;;;;;;6.32;4.63;;;18.20;99.90;;;;;;5091550;28;20462;-86
2021/08/11 08:13:09;;;;;;;14.57;6.10;;;18.00;99.90;;;;;;5091348;28;20031;-83
2021/08/11 08:15:35;;;;;;;10.70;5.70;;;17.80;99.90;;;;;;5092445;28;20028;-83
2021/08/11 08:18:00;;;;;;;12.32;5.57;;;17.60;99.90;;;;;;5091480;28;20107;-82
2021/08/11 08:20:26;;;;;;;13.63;4.53;;;17.80;99.90;;;;;;5091378;28;20567;-84
2021/08/11 08:22:52;;;;;;;9.10;4.15;;;18.10;99.90;;;;;;5091346;28;20024;-84
2021/08/11 08:25:22;;;;;;;7.07;3.80;;;18.50;99.90;;;;;;5090787;28;20028;-84
2021/08/11 08:27:49;;;;;;;15.32;4.07;;;18.90;99.90;;;;;;5091162;28;20031;-83
2021/08/11 08:30:17;;;;;;;7.70;3.83;;;19.20;99.90;;;;;;5091227;28;20403;-82
2021/08/11 08:32:43;;;;;;;10.68;4.32;;;19.70;99.90;;;;;;5091042;28;20035;-83
2021/08/11 08:35:09;;;;;;;12.50;3.60;;;19.90;99.90;;;;;;5090078;28;20156;-84
2021/08/11 08:37:39;;;;;;;9.23;3.38;;;20.00;99.90;;;;;;5092513;28;20099;-84
2021/08/11 08:40:13;;;;;;;7.32;3.17;;;20.20;99.90;;;;;;5091102;28;20024;-82
2021/08/11 08:42:40;;;;;;;10.80;3.80;;;20.10;99.90;;;;;;5091093;28;20392;-81
2021/08/11 08:45:07;;;;;;;7.15;2.97;;;20.30;99.90;;;;;;5091462;28;20030;-81
2021/08/11 08:47:36;;;;;;;5.05;2.80;;;20.60;99.90;;;;;;5092261;28;20474;-82
2021/08/11 08:50:04;;;;;;;6.90;2.75;;;20.80;99.90;;;;;;5090757;28;20115;-83
2021/08/11 08:52:31;;;;;;;7.35;3.10;;;20.90;99.90;;;;;;5092201;28;20048;-83
2021/08/11 08:54:58;;;;;;;4.75;2.53;;;20.80;99.90;;;;;;5091750;28;20424;-82
2021/08/11 08:57:25;;;;;;;4.95;3.22;;;20.50;99.90;;;;;;5092095;28;20024;-81
2021/08/11 08:59:51;;;;;;;5.05;3.38;;;20.60;99.90;;;;;;5090386;28;20036;-82
2021/08/11 09:02:16;;;;;;;6.25;3.13;;;20.20;99.90;;;;;;5091366;28;20020;-83
2021/08/11 09:04:42;;;;;;;9.45;4.28;;;20.40;99.90;;;;;;5090131;28;20395;-82
2021/08/11 09:07:16;;;;;;;5.40;4.00;;;20.60;99.90;;;;;;5090749;28;20479;-84
2021/08/11 09:09:43;;;;;;;6.78;3.83;;;20.60;99.90;;;;;;5091807;28;20036;-86
2021/08/11 09:12:17;;;;;;;6.10;3.30;;;20.20;99.90;;;;;;5090360;28;20111;-84
2021/08/11 09:14:45;;;;;;;9.40;4.30;;;19.90;99.90;;;;;;5090502;28;20073;-85
2021/08/11 09:17:31;;;;;;;10.02;3.88;;;19.70;99.90;;;;;;5090343;28;20437;-84
2021/08/11 09:19:57;;;;;;;9.88;3.65;;;19.70;99.90;;;;;;5090463;28;20028;-84
2021/08/11 09:22:23;;;;;;;11.82;3.47;;;19.90;99.90;;;;;;5091736;28;20103;-84
2021/08/11 09:25:03;;;;;;;6.93;3.50;;;20.20;99.90;;;;;;5090122;28;20131;-85
2021/08/11 09:27:29;;;;;;;7.70;3.40;;;20.40;99.90;;;;;;5091905;28;20016;-84
2021/08/11 09:30:02;;;;;;;8.25;3.10;;;20.60;99.90;;;;;;5090498;28;20442;-84
2021/08/11 09:32:28;;;;;;;7.05;3.65;;;20.80;99.90;;;;;;5090395;28;20081;-84
2021/08/11 09:34:54;;;;;;;6.38;3.40;;;20.70;99.90;;;;;;5089660;28;20028;-83
2021/08/11 09:37:40;;;;;;;6.13;3.33;;;21.00;99.90;;;;;;5091733;28;20115;-84
2021/08/11 09:40:10;;;;;;;7.32;3.08;;;21.50;99.90;;;;;;5091612;28;20024;-85
2021/08/11 09:42:37;;;;;;;7.45;3.30;;;21.60;99.90;;;;;;5090411;28;20070;-84
2021/08/11 09:45:03;;;;;;;5.38;3.08;;;21.70;99.90;;;;;;5089552;28;20028;-85
2021/08/11 09:47:29;;;;;;;8.77;3.22;;;21.90;99.90;;;;;;5090775;28;20020;-85
2021/08/11 09:49:59;;;;;;;6.90;3.10;;;21.80;99.90;;;;;;5094311;28;20073;-84
2021/08/11 09:52:25;;;;;;;8.18;3.47;;;21.90;99.90;;;;;;5094360;28;20024;-85
2021/08/11 09:55:01;;;;;;;9.68;3.15;;;22.00;99.90;;;;;;5094930;28;20526;-83
2021/08/11 09:57:29;;;;;;;7.25;3.15;;;21.80;99.90;;;;;;5094063;28;20021;-85
2021/08/11 09:59:58;;;;;;;9.40;3.10;;;21.70;99.90;;;;;;5095261;28;20426;-83
2021/08/11 10:02:25;;;;;;;13.35;3.67;;;21.80;99.90;;;;;;5095439;28;20024;-84
2021/08/11 10:04:51;;;;;;;6.15;3.03;;;22.00;99.90;;;;;;5094776;28;20024;-84
2021/08/11 10:07:17;;;;;;;5.95;2.83;;;22.00;99.90;;;;;;5093752;28;20027;-85
2021/08/11 10:09:59;;;;;;;4.45;2.53;;;22.30;99.90;;;;;;5093590;28;20020;-84
2021/08/11 10:12:27;;;;;;;5.88;2.45;;;22.50;99.90;;;;;;5094577;28;20112;-84
2021/08/11 10:15:00;;;;;;;4.55;2.45;;;23.20;99.90;;;;;;5093461;28;20078;-85
2021/08/11 10:17:30;;;;;;;6.05;2.60;;;23.00;99.90;;;;;;5093978;28;20024;-84
2021/08/11 10:20:00;;;;;;;3.95;2.45;;;22.30;99.90;;;;;;5093484;28;20453;-84
2021/08/11 10:22:28;;;;;;;9.18;2.85;;;21.70;99.90;;;;;;5094918;28;20204;-84
2021/08/11 10:24:55;;;;;;;6.22;2.78;;;21.50;99.90;;;;;;5093830;28;20028;-84
2021/08/11 10:27:21;;;;;;;4.82;2.67;;;21.50;99.90;;;;;;5095106;28;20020;-85
2021/08/11 10:29:47;;;;;;;6.25;2.75;;;21.90;99.90;;;;;;5093373;28;20046;-87
2021/08/11 10:32:14;;;;;;;5.35;2.97;;;22.10;99.90;;;;;;5093642;28;20028;-85
2021/08/11 10:34:40;;;;;;;8.40;2.35;;;22.80;99.90;;;;;;5093053;28;20118;-84
2021/08/11 10:37:06;;;;;;;8.35;2.67;;;22.80;99.90;;;;;;5094174;28;20032;-87
2021/08/11 10:39:33;;;;;;;5.93;2.47;;;23.00;99.90;;;;;;5094684;28;20399;-84
2021/08/11 10:42:07;;;;;;;7.57;2.10;;;23.20;99.90;;;;;;5094619;28;20465;-85
2021/08/11 10:44:32;;;;;;;4.43;2.42;;;23.40;99.90;;;;;;5094071;28;20538;-85
2021/08/11 10:47:03;;;;;;;6.30;2.60;;;23.20;99.90;;;;;;5093296;28;20157;-85
2021/08/11 10:49:30;;;;;;;6.43;2.15;;;22.60;99.90;;;;;;5094456;28;20480;-82
2021/08/11 10:52:03;;;;;;;3.72;2.28;;;22.20;99.90;;;;;;5093375;28;20028;-86
2021/08/11 10:54:47;;;;;;;5.93;2.30;;;22.30;99.90;;;;;;5094039;28;20035;-85
2021/08/11 10:57:12;;;;;;;6.20;2.15;;;22.20;99.90;;;;;;5093263;28;20031;-86
2021/08/11 10:59:42;;;;;;;7.47;2.45;;;21.60;99.90;;;;;;5092797;28;20024;-83
2021/08/11 11:02:42;;;;;;;7.60;2.08;;;21.40;99.90;;;;;;5092875;28;20024;-83
2021/08/11 11:05:19;;;;;;;5.55;2.60;;;21.30;99.90;;;;;;5092308;28;20031;-84
2021/08/11 11:08:08;;;;;;;5.93;2.60;;;21.60;99.90;;;;;;5092814;28;20047;-84
2021/08/11 11:10:35;;;;;;;5.57;2.30;;;21.90;99.90;;;;;;5092619;28;20024;-84
2021/08/11 11:13:01;;;;;;;5.05;2.05;;;22.30;99.90;;;;;;5093986;28;20145;-84
2021/08/11 11:15:51;;;;;;;9.57;3.08;;;22.50;99.90;;;;;;5093406;28;20111;-85
2021/08/11 11:18:20;;;;;;;5.10;2.22;;;23.10;99.90;;;;;;5082494;28;20035;-84
2021/08/11 11:20:46;;;;;;;8.20;2.33;;;23.30;99.90;;;;;;5093722;28;20503;-84
2021/08/11 11:23:29;;;;;;;5.47;2.63;;;23.50;99.90;;;;;;5092515;28;20024;-83
2021/08/11 11:25:59;;;;;;;5.32;2.25;;;23.60;99.90;;;;;;5093301;28;20138;-84
2021/08/11 11:28:59;;;;;;;5.28;2.00;;;23.90;99.90;;;;;;5092176;28;20027;-85
2021/08/11 11:31:41;;;;;;;4.47;1.80;;;23.70;99.90;;;;;;5092604;28;20024;-86
2021/08/11 11:34:20;;;;;;;3.67;2.03;;;23.10;99.90;;;;;;5092060;28;20020;-83
2021/08/11 11:36:54;;;;;;;3.85;2.20;;;23.20;99.90;;;;;;5093234;28;20114;-84
2021/08/11 11:39:27;;;;;;;3.08;1.88;;;23.30;99.90;;;;;;5093216;28;20103;-85
2021/08/11 11:42:08;;;;;;;7.32;2.40;;;23.60;99.90;;;;;;5092232;28;20085;-84
2021/08/11 11:44:47;;;;;;;6.15;2.38;;;23.90;99.90;;;;;;5091888;28;20059;-84
2021/08/11 11:47:17;;;;;;;3.97;2.28;;;23.90;99.90;;;;;;5091712;28;20518;-85
2021/08/11 11:49:43;;;;;;;2.40;1.83;;;23.70;99.90;;;;;;5092231;28;20031;-86
2021/08/11 11:52:18;;;;;;;8.88;2.08;;;23.40;99.90;;;;;;5091891;28;20024;-84
2021/08/11 11:54:48;;;;;;;7.20;2.40;;;23.20;99.90;;;;;;5091714;28;20024;-84
2021/08/11 11:57:15;;;;;;;3.17;1.70;;;23.30;99.90;;;;;;5091758;28;20032;-83
2021/08/11 11:59:48;;;;;;;6.95;1.77;;;23.60;99.90;;;;;;5091885;28;20115;-85
2021/08/11 12:02:21;;;;;;;4.80;2.00;;;23.50;99.90;;;;;;5091912;28;20020;-84
2021/08/11 12:05:00;;;;;;;2.33;1.83;;;23.30;99.90;;;;;;5091488;28;20052;-86
2021/08/11 12:07:27;;;;;;;5.00;1.63;;;23.20;99.90;;;;;;5091395;28;20024;-84
2021/08/11 12:09:53;;;;;;;3.80;1.80;;;23.30;99.90;;;;;;5091489;28;20038;-83
2021/08/11 12:12:19;;;;;;;7.28;2.67;;;23.60;99.90;;;;;;5092437;28;20028;-84
2021/08/11 12:14:44;;;;;;;5.13;2.08;;;23.50;99.90;;;;;;5091294;28;20476;-85
2021/08/11 12:17:26;;;;;;;2.63;1.70;;;23.20;99.90;;;;;;5091137;28;20073;-84
2021/08/11 12:19:52;;;;;;;3.83;1.88;;;23.40;99.90;;;;;;5091398;28;20073;-84
2021/08/11 12:22:36;;;;;;;7.40;2.40;;;23.60;99.90;;;;;;5092748;28;20020;-82
2021/08/11 12:25:02;;;;;;;5.18;1.90;;;23.10;99.90;;;;;;5091232;28;20400;-84
2021/08/11 12:27:28;;;;;;;6.53;2.97;;;23.30;99.90;;;;;;5092103;28;20042;-84
2021/08/11 12:30:17;;;;;;;3.45;2.00;;;23.30;99.90;;;;;;5091642;28;20024;-84
2021/08/11 12:32:42;;;;;;;6.45;2.30;;;23.40;99.90;;;;;;5091369;28;20032;-83
2021/08/11 12:35:11;;;;;;;4.53;2.00;;;23.80;99.90;;;;;;5092240;28;20043;-84
2021/08/11 12:37:46;;;;;;;5.10;2.08;;;23.90;99.90;;;;;;5092183;28;20031;-84
2021/08/11 12:40:40;;;;;;;5.22;1.75;;;24.20;99.90;;;;;;5091110;28;20491;-84